createdAt,value
2023-05-04T00:01:37.041Z,100691.91
2023-05-04T00:04:06.594Z,100690.19
2023-05-04T00:06:35.238Z,100686.47
2023-05-04T00:09:04.650Z,100687.31
2023-05-04T00:11:35.273Z,100677.56
2023-05-04T00:14:04.253Z,100674.00
2023-05-04T00:16:32.666Z,100673.03
2023-05-04T00:19:01.419Z,100672.09
2023-05-04T00:21:29.908Z,100678.94
2023-05-04T00:23:58.338Z,100683.94
2023-05-04T00:26:26.938Z,100672.50
2023-05-04T00:28:57.032Z,100673.25
2023-05-04T00:31:25.923Z,100674.88
2023-05-04T00:33:54.297Z,100668.72
2023-05-04T00:36:22.780Z,100661.75
2023-05-04T00:38:53.142Z,100671.31
2023-05-04T00:41:23.074Z,100661.75
2023-05-04T00:43:51.630Z,100665.19
2023-05-04T00:46:22.416Z,100665.91
2023-05-04T00:48:52.222Z,100657.03
2023-05-04T00:51:24.161Z,100653.44
2023-05-04T00:53:55.150Z,100661.19
2023-05-04T00:56:25.006Z,100652.44
2023-05-04T00:58:54.728Z,100658.53
2023-05-04T01:01:24.740Z,100654.13
2023-05-04T01:03:55.742Z,100646.22
2023-05-04T01:06:33.353Z,100638.41
2023-05-04T01:09:11.800Z,100636.63
2023-05-04T01:11:45.618Z,100634.84
2023-05-04T01:14:16.583Z,100636.56
2023-05-04T01:16:47.280Z,100636.56
2023-05-04T01:19:16.952Z,100620.84
2023-05-04T01:21:47.878Z,100624.31
2023-05-04T01:24:16.899Z,100626.03
2023-05-04T01:26:48.499Z,100629.44
2023-05-04T01:29:23.140Z,100629.44
2023-05-04T01:31:52.233Z,100627.53
2023-05-04T01:34:23.711Z,100631.94
2023-05-04T01:36:54.220Z,100624.94
2023-05-04T01:39:26.187Z,100630.03
2023-05-04T01:41:56.203Z,100624.81
2023-05-04T01:44:24.629Z,100631.72
2023-05-04T01:46:53.025Z,100626.44
2023-05-04T01:49:21.533Z,100624.66
2023-05-04T01:51:53.180Z,100628.13
2023-05-04T01:54:21.499Z,100634.13
2023-05-04T01:56:50.153Z,100630.56
2023-05-04T01:59:18.709Z,100633.03
2023-05-04T02:01:47.261Z,100628.63
2023-05-04T02:04:15.863Z,100632.88
2023-05-04T02:06:44.392Z,100630.19
2023-05-04T02:09:15.629Z,100629.31
2023-05-04T02:11:44.372Z,100624.94
2023-05-04T02:14:12.783Z,100630.94
2023-05-04T02:16:41.651Z,100613.44
2023-05-04T02:19:10.196Z,100622.06
2023-05-04T02:21:38.682Z,100616.69
2023-05-04T02:24:07.589Z,100612.31
2023-05-04T02:26:37.449Z,100610.56
2023-05-04T02:29:06.356Z,100614.78
2023-05-04T02:31:35.404Z,100611.28
2023-05-04T02:34:03.970Z,100613.00
2023-05-04T02:36:32.584Z,100605.13
2023-05-04T02:39:01.424Z,100609.38
2023-05-04T02:41:29.902Z,100610.19
2023-05-04T02:43:59.647Z,100605.81
2023-05-04T02:46:28.345Z,100610.06
2023-05-04T02:48:56.705Z,100610.88
2023-05-04T02:51:25.172Z,100614.22
2023-05-04T02:53:53.632Z,100608.88
2023-05-04T02:56:22.123Z,100608.72
2023-05-04T02:58:50.493Z,100612.09
2023-05-04T03:01:20.515Z,100605.03
2023-05-04T03:03:49.193Z,100606.59
2023-05-04T03:06:17.618Z,100604.72
2023-05-04T03:08:46.366Z,100605.53
2023-05-04T03:11:15.154Z,100596.81
2023-05-04T03:13:43.611Z,100602.81
2023-05-04T03:16:12.968Z,100599.25
2023-05-04T03:18:43.763Z,100600.13
2023-05-04T03:21:12.601Z,100593.09
2023-05-04T03:23:41.118Z,100602.50
2023-05-04T03:26:09.618Z,100605.91
2023-05-04T03:28:38.128Z,100598.13
2023-05-04T03:31:06.817Z,100596.31
2023-05-04T03:33:35.463Z,100596.31
2023-05-04T03:36:06.689Z,100593.63
2023-05-04T03:38:35.109Z,100593.44
2023-05-04T03:41:04.947Z,100579.56
2023-05-04T03:43:33.350Z,100589.09
2023-05-04T03:46:02.281Z,100576.13
2023-05-04T03:48:31.157Z,100574.34
2023-05-04T03:50:59.966Z,100580.34
2023-05-04T03:53:29.691Z,100569.16
2023-05-04T03:55:58.050Z,100570.78
2023-05-04T03:58:26.427Z,100575.88
2023-05-04T04:00:55.252Z,100567.19
2023-05-04T04:03:24.061Z,100564.56
2023-05-04T04:05:52.492Z,100563.66
2023-05-04T04:08:21.031Z,100569.63
2023-05-04T04:10:51.713Z,100559.13
2023-05-04T04:13:20.298Z,100570.31
2023-05-04T04:15:50.362Z,100574.59
2023-05-04T04:18:18.787Z,100580.59
2023-05-04T04:20:47.278Z,100580.53
2023-05-04T04:23:18.490Z,100581.28
2023-05-04T04:25:46.983Z,100581.13
2023-05-04T04:28:17.451Z,100584.53
2023-05-04T04:30:46.362Z,100584.47
2023-05-04T04:33:15.249Z,100579.09
2023-05-04T04:35:43.748Z,100578.22
2023-05-04T04:38:12.363Z,100583.34
2023-05-04T04:40:40.783Z,100570.22
2023-05-04T04:43:09.115Z,100579.78
2023-05-04T04:45:41.244Z,100572.00
2023-05-04T04:48:09.613Z,100579.78
2023-05-04T04:50:40.709Z,100576.22
2023-05-04T04:53:09.835Z,100572.72
2023-05-04T04:55:38.295Z,100578.81
2023-05-04T04:58:08.533Z,100577.88
2023-05-04T05:00:38.711Z,100570.88
2023-05-04T05:03:07.586Z,100570.81
2023-05-04T05:05:36.284Z,100574.28
2023-05-04T05:08:04.816Z,100572.50
2023-05-04T05:10:33.869Z,100575.78
2023-05-04T05:13:03.000Z,100568.94
2023-05-04T05:15:31.777Z,100567.19
2023-05-04T05:18:01.816Z,100562.00
2023-05-04T05:20:30.427Z,100569.78
2023-05-04T05:22:58.767Z,100558.50
2023-05-04T05:25:27.991Z,100573.19
2023-05-04T05:27:56.645Z,100574.00
2023-05-04T05:30:25.466Z,100574.00
2023-05-04T05:32:53.949Z,100576.59
2023-05-04T05:35:24.217Z,100570.59
2023-05-04T05:37:53.036Z,100563.59
2023-05-04T05:40:22.403Z,100568.81
2023-05-04T05:42:50.732Z,100572.22
2023-05-04T05:45:19.466Z,100570.41
2023-05-04T05:47:47.905Z,100562.72
2023-05-04T05:50:19.419Z,100564.50
2023-05-04T05:52:49.202Z,100559.31
2023-05-04T05:55:17.963Z,100549.91
2023-05-04T05:57:46.756Z,100548.34
2023-05-04T06:00:17.340Z,100554.50
2023-05-04T06:02:46.144Z,100554.56
2023-05-04T06:05:15.544Z,100549.63
2023-05-04T06:07:43.917Z,100548.06
2023-05-04T06:10:15.256Z,100548.19
2023-05-04T06:12:43.974Z,100537.16
2023-05-04T06:15:14.372Z,100533.81
2023-05-04T06:17:43.348Z,100535.75
2023-05-04T06:20:12.994Z,100539.28
2023-05-04T06:22:41.296Z,100541.06
2023-05-04T06:25:11.529Z,100530.00
2023-05-04T06:27:41.348Z,100526.50
2023-05-04T06:30:11.178Z,100522.13
2023-05-04T06:32:40.078Z,100523.06
2023-05-04T06:35:10.588Z,100529.22
2023-05-04T06:37:39.087Z,100519.81
2023-05-04T06:40:09.566Z,100527.72
2023-05-04T06:42:38.178Z,100529.53
2023-05-04T06:45:09.876Z,100530.63
2023-05-04T06:47:38.306Z,100524.63
2023-05-04T06:50:11.820Z,100523.81
2023-05-04T06:52:42.161Z,100523.88
2023-05-04T06:55:10.932Z,100529.09
2023-05-04T06:57:39.430Z,100525.72
2023-05-04T07:00:11.433Z,100528.47
2023-05-04T07:02:40.162Z,100518.09
2023-05-04T07:05:09.704Z,100518.22
2023-05-04T07:07:39.150Z,100520.88
2023-05-04T07:10:10.178Z,100526.22
2023-05-04T07:12:38.686Z,100524.66
2023-05-04T07:15:10.553Z,100515.28
2023-05-04T07:17:39.577Z,100514.69
2023-05-04T07:20:09.711Z,100511.41
2023-05-04T07:22:38.092Z,100502.94
2023-05-04T07:25:07.156Z,100509.28
2023-05-04T07:27:37.182Z,100501.72
2023-05-04T07:30:11.298Z,100510.63
2023-05-04T07:32:39.789Z,100503.97
2023-05-04T07:35:09.421Z,100495.56
2023-05-04T07:37:37.834Z,100496.63
2023-05-04T07:40:08.398Z,100498.56
2023-05-04T07:42:37.358Z,100497.88
2023-05-04T07:45:08.410Z,100486.91
2023-05-04T07:47:38.642Z,100489.03
2023-05-04T07:50:08.763Z,100490.16
2023-05-04T07:52:37.493Z,100486.03
2023-05-04T07:55:07.090Z,100480.34
2023-05-04T07:57:37.811Z,100484.22
2023-05-04T08:00:08.892Z,100479.34
2023-05-04T08:02:45.365Z,100481.41
2023-05-04T08:05:13.977Z,100477.44
2023-05-04T08:07:42.393Z,100475.16
2023-05-04T08:10:11.685Z,100475.53
2023-05-04T08:12:41.685Z,100468.03
2023-05-04T08:15:11.415Z,100473.59
2023-05-04T08:17:40.771Z,100467.81
2023-05-04T08:20:13.002Z,100475.97
2023-05-04T08:22:41.514Z,100467.56
2023-05-04T08:25:11.200Z,100466.16
2023-05-04T08:27:40.203Z,100462.91
2023-05-04T08:30:10.404Z,100469.38
2023-05-04T08:32:38.811Z,100465.28
2023-05-04T08:35:08.104Z,100457.84
2023-05-04T08:37:38.331Z,100453.81
2023-05-04T08:40:08.512Z,100451.44
2023-05-04T08:42:37.997Z,100449.13
2023-05-04T08:45:08.133Z,100445.06
2023-05-04T08:47:36.783Z,100448.84
2023-05-04T08:50:07.611Z,100429.91
2023-05-04T08:52:39.074Z,100427.56
2023-05-04T08:55:08.798Z,100434.75
2023-05-04T08:57:37.457Z,100429.78
2023-05-04T09:00:09.118Z,100437.06
2023-05-04T09:02:39.621Z,100434.63
2023-05-04T09:05:09.426Z,100433.13
2023-05-04T09:07:39.249Z,100429.84
2023-05-04T09:10:09.549Z,100426.59
2023-05-04T09:12:38.786Z,100420.75
2023-05-04T09:15:18.127Z,100422.72
2023-05-04T09:17:58.156Z,100416.81
2023-05-04T09:20:27.084Z,100420.53
2023-05-04T09:23:06.981Z,100418.22
2023-05-04T09:25:35.730Z,100420.13
2023-05-04T09:28:04.258Z,100418.53
2023-05-04T09:30:33.034Z,100419.66
2023-05-04T09:33:03.276Z,100424.19
2023-05-04T09:35:33.690Z,100418.25
2023-05-04T09:38:05.101Z,100413.22
2023-05-04T09:40:37.787Z,100416.03
2023-05-04T09:43:06.703Z,100400.56
2023-05-04T09:45:42.767Z,100403.47
2023-05-04T09:48:20.154Z,100399.38
2023-05-04T09:50:54.789Z,100389.09
2023-05-04T09:53:26.692Z,100377.09
2023-05-04T09:56:08.124Z,100380.81
2023-05-04T09:58:38.158Z,100363.53
2023-05-04T10:01:08.306Z,100364.66
2023-05-04T10:03:37.817Z,100370.16
2023-05-04T10:06:08.961Z,100372.09
2023-05-04T10:08:40.232Z,100364.47
2023-05-04T10:11:09.706Z,100359.47
2023-05-04T10:13:38.076Z,100349.16
2023-05-04T10:16:32.959Z,100345.84
2023-05-04T10:19:31.202Z,100347.84
2023-05-04T10:22:22.829Z,100355.03
2023-05-04T10:25:30.903Z,100342.91
2023-05-04T10:28:08.452Z,100331.69
2023-05-04T10:30:39.964Z,100331.84
2023-05-04T10:33:08.889Z,100333.75
2023-05-04T10:35:37.864Z,100333.00
2023-05-04T10:38:06.430Z,100317.41
2023-05-04T10:40:42.054Z,100317.59
2023-05-04T10:43:11.619Z,100308.94
2023-05-04T10:45:41.724Z,100309.94
2023-05-04T10:48:11.060Z,100321.44
2023-05-04T10:50:47.643Z,100305.00
2023-05-04T10:53:18.485Z,100307.69
2023-05-04T10:55:49.871Z,100304.34
2023-05-04T10:58:29.195Z,100291.31
2023-05-04T11:00:57.783Z,100288.75
2023-05-04T11:03:26.917Z,100274.00
2023-05-04T11:05:55.690Z,100269.72
2023-05-04T11:08:25.946Z,100269.84
2023-05-04T11:11:05.163Z,100264.72
2023-05-04T11:13:36.494Z,100275.31
2023-05-04T11:16:05.122Z,100264.00
2023-05-04T11:18:37.437Z,100265.03
2023-05-04T11:21:06.445Z,100256.38
2023-05-04T11:23:35.103Z,100252.13
2023-05-04T11:26:09.432Z,100253.13
2023-05-04T11:28:39.850Z,100254.94
2023-05-04T11:31:14.787Z,100244.53
2023-05-04T11:33:48.314Z,100232.31
2023-05-04T11:36:19.234Z,100237.63
2023-05-04T11:38:48.076Z,100233.34
2023-05-04T11:41:18.685Z,100226.44
2023-05-04T11:43:48.181Z,100231.78
2023-05-04T11:46:18.073Z,100210.91
2023-05-04T11:48:47.896Z,100215.34
2023-05-04T11:51:16.246Z,100206.69
2023-05-04T11:53:44.692Z,100204.13
2023-05-04T11:56:13.182Z,100194.53
2023-05-04T11:58:43.105Z,100193.78
2023-05-04T12:01:11.584Z,100195.56
2023-05-04T12:03:51.966Z,100188.63
2023-05-04T12:06:33.873Z,100177.28
2023-05-04T12:09:07.245Z,100180.91
2023-05-04T12:11:38.273Z,100183.53
2023-05-04T12:14:11.147Z,100178.34
2023-05-04T12:16:42.773Z,100182.78
2023-05-04T12:19:13.484Z,100168.81
2023-05-04T12:21:53.077Z,100164.50
2023-05-04T12:24:24.797Z,100168.97
2023-05-04T12:26:53.560Z,100172.53
2023-05-04T12:29:23.422Z,100167.34
2023-05-04T12:31:52.076Z,100162.13
2023-05-04T12:34:20.433Z,100156.94
2023-05-04T12:36:51.919Z,100150.88
2023-05-04T12:39:21.062Z,100147.41
2023-05-04T12:41:49.405Z,100145.69
2023-05-04T12:44:18.845Z,100146.59
2023-05-04T12:46:48.735Z,100144.88
2023-05-04T12:49:17.146Z,100141.38
2023-05-04T12:54:14.401Z,100136.22
2023-05-04T12:56:42.870Z,100139.81
2023-05-04T12:59:11.842Z,100124.94
2023-05-04T13:01:41.950Z,100115.34
2023-05-04T13:04:11.752Z,100118.88
2023-05-04T13:06:40.278Z,100114.53
2023-05-04T13:09:08.888Z,100111.94
2023-05-04T13:11:37.946Z,100103.16
2023-05-04T13:14:07.281Z,100099.66
2023-05-04T13:16:35.765Z,100087.38
2023-05-04T13:19:04.894Z,100087.44
2023-05-04T13:21:34.702Z,100091.81
2023-05-04T13:24:03.316Z,100084.81
2023-05-04T13:26:32.213Z,100078.66
2023-05-04T13:29:01.094Z,100069.91
2023-05-04T13:31:29.536Z,100064.66
2023-05-04T13:33:58.036Z,100074.34
2023-05-04T13:36:26.775Z,100067.31
2023-05-04T13:38:56.889Z,100062.09
2023-05-04T13:41:25.395Z,100055.06
2023-05-04T13:43:54.148Z,100049.81
2023-05-04T13:46:23.126Z,100053.31
2023-05-04T13:48:52.256Z,100054.22
2023-05-04T13:51:21.002Z,100044.56
2023-05-04T13:53:49.427Z,100036.69
2023-05-04T13:56:19.206Z,100041.94
2023-05-04T13:58:47.653Z,100035.81
2023-05-04T14:01:16.160Z,100028.78
2023-05-04T14:03:44.651Z,100015.63
2023-05-04T14:06:13.049Z,100023.53
2023-05-04T14:08:41.406Z,100020.88
2023-05-04T14:11:09.815Z,100014.75
2023-05-04T14:13:39.856Z,100002.44
2023-05-04T14:16:08.504Z,99996.31
2023-05-04T14:18:36.976Z,99998.94
2023-05-04T14:21:05.679Z,99992.81
2023-05-04T14:23:34.297Z,99994.56
2023-05-04T14:26:03.257Z,99992.81
2023-05-04T14:28:32.224Z,99986.66
2023-05-04T14:31:08.775Z,99984.91
2023-05-04T14:33:37.481Z,99984.91
2023-05-04T14:36:06.642Z,99981.41
2023-05-04T14:38:36.080Z,99971.72
2023-05-04T14:41:05.425Z,99974.38
2023-05-04T14:43:36.626Z,99974.38
2023-05-04T14:46:09.278Z,99967.31
2023-05-04T14:48:37.825Z,99973.50
2023-05-04T14:51:06.401Z,99967.34
2023-05-04T14:53:37.259Z,99967.34
2023-05-04T14:56:07.790Z,99954.16
2023-05-04T14:58:36.417Z,99955.91
2023-05-04T15:01:06.688Z,99955.03
2023-05-04T15:03:35.491Z,99944.50
2023-05-04T15:06:03.975Z,99946.25
2023-05-04T15:08:32.459Z,99935.72
2023-05-04T15:11:01.066Z,99926.94
2023-05-04T15:13:29.459Z,99929.56
2023-05-04T15:15:58.260Z,99934.84
2023-05-04T15:18:28.858Z,99929.56
2023-05-04T15:20:57.395Z,99926.03
2023-05-04T15:23:25.724Z,99922.53
2023-05-04T15:25:54.156Z,99924.28
2023-05-04T15:28:23.027Z,99919.88
2023-05-04T15:30:51.428Z,99915.47
2023-05-04T15:33:19.765Z,99911.09
2023-05-04T15:35:49.959Z,99917.28
2023-05-04T15:38:18.917Z,99912.00
2023-05-04T15:40:47.325Z,99906.72
2023-05-04T15:43:16.222Z,99907.59
2023-05-04T15:45:44.729Z,99901.44
2023-05-04T15:48:13.126Z,99904.97
2023-05-04T15:50:41.532Z,99899.66
2023-05-04T15:53:11.341Z,99904.94
2023-05-04T15:55:40.365Z,99902.31
2023-05-04T15:58:09.003Z,99904.09
2023-05-04T16:00:37.702Z,99899.69
2023-05-04T16:03:06.703Z,99904.06
2023-05-04T16:05:35.198Z,99894.41
2023-05-04T16:08:03.634Z,99897.03
2023-05-04T16:10:33.460Z,99903.22
2023-05-04T16:13:04.362Z,99904.94
2023-05-04T16:15:32.896Z,99902.31
2023-05-04T16:18:01.555Z,99899.69
2023-05-04T16:20:30.629Z,99888.25
2023-05-04T16:22:59.020Z,99876.84
2023-05-04T16:25:27.431Z,99882.13
2023-05-04T16:27:57.692Z,99880.38
2023-05-04T16:30:32.177Z,99883.88
2023-05-04T16:33:00.893Z,99883.88
2023-05-04T16:35:31.703Z,99874.22
2023-05-04T16:38:00.530Z,99884.75
2023-05-04T16:40:29.306Z,99875.09
2023-05-04T16:42:59.270Z,99877.72
2023-05-04T16:45:31.822Z,99880.34
2023-05-04T16:48:00.990Z,99876.84
2023-05-04T16:50:29.840Z,99868.94
2023-05-04T16:52:58.283Z,99873.34
2023-05-04T16:55:27.561Z,99872.47
2023-05-04T16:57:59.478Z,99869.84
2023-05-04T17:00:29.146Z,99868.06
2023-05-04T17:02:57.683Z,99868.94
2023-05-04T17:05:26.537Z,99865.44
2023-05-04T17:07:54.839Z,99859.28
2023-05-04T17:10:24.699Z,99860.16
2023-05-04T17:12:54.952Z,99854.91
2023-05-04T17:15:25.016Z,99848.75
2023-05-04T17:17:55.601Z,99853.13
2023-05-04T17:20:28.671Z,99857.50
2023-05-04T17:22:58.533Z,99850.53
2023-05-04T17:25:27.754Z,99861.06
2023-05-04T17:27:56.500Z,99861.03
2023-05-04T17:30:27.013Z,99858.41
2023-05-04T17:32:57.419Z,99865.44
2023-05-04T17:35:26.772Z,99871.56
2023-05-04T17:37:57.918Z,99864.56
2023-05-04T17:40:28.768Z,99864.56
2023-05-04T17:42:57.358Z,99872.44
2023-05-04T17:45:27.178Z,99870.72
2023-05-04T17:47:57.214Z,99873.31
2023-05-04T17:50:26.774Z,99872.44
2023-05-04T17:52:56.689Z,99868.94
2023-05-04T17:55:25.791Z,99873.28
2023-05-04T17:57:55.090Z,99874.16
2023-05-04T18:00:24.218Z,99875.03
2023-05-04T18:02:54.534Z,99885.56
2023-05-04T18:05:23.012Z,99875.03
2023-05-04T18:07:51.722Z,99873.25
2023-05-04T18:10:20.472Z,99875.03
2023-05-04T18:12:48.924Z,99881.16
2023-05-04T18:15:18.472Z,99886.41
2023-05-04T18:17:48.567Z,99889.91
2023-05-04T18:20:18.365Z,99903.09
2023-05-04T18:22:46.780Z,99889.03
2023-05-04T18:25:15.330Z,99897.81
2023-05-04T18:27:44.467Z,99899.53
2023-05-04T18:30:13.477Z,99898.69
2023-05-04T18:32:42.234Z,99897.78
2023-05-04T18:35:11.670Z,99899.56
2023-05-04T18:37:41.710Z,99912.69
2023-05-04T18:40:11.518Z,99908.31
2023-05-04T18:42:40.475Z,99917.06
2023-05-04T18:45:11.450Z,99917.03
2023-05-04T18:47:39.854Z,99924.06
2023-05-04T18:50:10.517Z,99918.78
2023-05-04T18:52:39.008Z,99917.00
2023-05-04T18:55:10.514Z,99920.50
2023-05-04T18:57:38.881Z,99927.53
2023-05-04T19:00:09.638Z,99921.38
2023-05-04T19:02:38.793Z,99930.13
2023-05-04T19:05:07.974Z,99929.22
2023-05-04T19:07:37.009Z,99927.44
2023-05-04T19:12:36.964Z,99923.03
2023-05-04T19:15:06.892Z,99927.41
2023-05-04T19:17:35.374Z,99932.66
2023-05-04T19:20:04.385Z,99926.50
2023-05-04T19:22:32.758Z,99931.75
2023-05-04T19:25:01.194Z,99932.66
2023-05-04T19:27:29.880Z,99934.38
2023-05-04T19:29:59.658Z,99939.63
2023-05-04T19:32:28.488Z,99937.00
2023-05-04T19:34:57.004Z,99935.22
2023-05-04T19:37:25.732Z,99938.72
2023-05-04T19:39:54.706Z,99936.09
2023-05-04T19:42:23.091Z,99930.81
2023-05-04T19:44:51.883Z,99936.06
2023-05-04T19:47:21.964Z,99926.41
2023-05-04T19:49:50.292Z,99929.91
2023-05-04T19:52:18.783Z,99927.28
2023-05-04T19:54:48.615Z,99929.00
2023-05-04T19:57:17.091Z,99922.84
2023-05-04T19:59:47.008Z,99918.41
2023-05-04T20:02:16.194Z,99919.25
2023-05-04T20:04:46.338Z,99914.03
2023-05-04T20:07:14.781Z,99918.34
2023-05-04T20:09:43.437Z,99913.06
2023-05-04T20:12:12.225Z,99912.16
2023-05-04T20:14:41.224Z,99906.03
2023-05-04T20:17:09.843Z,99905.16
2023-05-04T20:19:40.778Z,99900.72
2023-05-04T20:22:11.079Z,99906.00
2023-05-04T20:24:39.581Z,99898.09
2023-05-04T20:27:08.241Z,99902.47
2023-05-04T20:29:37.016Z,99896.31
2023-05-04T20:32:07.258Z,99905.03
2023-05-04T20:34:36.301Z,99896.28
2023-05-04T20:37:04.651Z,99900.63
2023-05-04T20:39:34.439Z,99897.97
2023-05-04T20:42:03.997Z,99897.97
2023-05-04T20:44:32.763Z,99897.06
2023-05-04T20:47:01.256Z,99895.28
2023-05-04T20:49:29.557Z,99894.41
2023-05-04T20:51:58.368Z,99897.91
2023-05-04T20:54:26.789Z,99888.22
2023-05-04T20:56:56.550Z,99889.97
2023-05-04T20:59:24.916Z,99884.69
2023-05-04T21:01:53.304Z,99882.03
2023-05-04T21:04:21.905Z,99882.88
2023-05-04T21:06:50.534Z,99871.50
2023-05-04T21:09:19.202Z,99876.72
2023-05-04T21:11:47.714Z,99878.47
2023-05-04T21:14:17.775Z,99865.31
2023-05-04T21:16:46.065Z,99867.91
2023-05-04T21:19:14.497Z,99866.19
2023-05-04T21:21:42.818Z,99867.03
2023-05-04T21:24:15.204Z,99860.81
2023-05-04T21:26:44.997Z,99861.69
2023-05-04T21:29:14.030Z,99857.31
2023-05-04T21:31:44.193Z,99860.81
2023-05-04T21:34:12.625Z,99853.78
2023-05-04T21:36:44.349Z,99849.38
2023-05-04T21:39:12.785Z,99857.22
2023-05-04T21:41:41.499Z,99856.31
2023-05-04T21:44:09.866Z,99851.94
2023-05-04T21:46:38.352Z,99852.78
2023-05-04T21:49:08.416Z,99848.41
2023-05-04T21:51:36.944Z,99853.66
2023-05-04T21:54:05.371Z,99848.38
2023-05-04T21:56:34.135Z,99846.59
2023-05-04T21:59:03.136Z,99839.63
2023-05-04T22:01:31.520Z,99847.47
2023-05-04T22:04:00.258Z,99840.47
2023-05-04T22:06:30.170Z,99837.81
2023-05-04T22:08:58.814Z,99840.44
2023-05-04T22:11:27.410Z,99830.84
2023-05-04T22:13:56.268Z,99834.28
2023-05-04T22:16:25.314Z,99849.13
2023-05-04T22:18:53.940Z,99849.13
2023-05-04T22:21:22.435Z,99844.75
2023-05-04T22:23:52.286Z,99843.00
2023-05-04T22:26:20.826Z,99847.34
2023-05-04T22:28:49.175Z,99844.72
2023-05-04T22:31:17.540Z,99851.72
2023-05-04T22:33:46.739Z,99846.44
2023-05-04T22:36:15.448Z,99850.78
2023-05-04T22:38:43.913Z,99849.88
2023-05-04T22:41:14.699Z,99852.53
2023-05-04T22:43:43.069Z,99843.75
2023-05-04T22:46:17.200Z,99848.13
2023-05-04T22:48:47.413Z,99843.75
2023-05-04T22:51:16.022Z,99845.50
2023-05-04T22:53:44.931Z,99840.22
2023-05-04T22:56:14.944Z,99837.59
2023-05-04T22:58:43.591Z,99845.47
2023-05-04T23:01:12.102Z,99848.09
2023-05-04T23:03:41.022Z,99827.09
2023-05-04T23:06:09.749Z,99844.59
2023-05-04T23:08:38.710Z,99846.34
2023-05-04T23:11:07.226Z,99843.69
2023-05-04T23:13:37.593Z,99838.44
2023-05-04T23:16:07.676Z,99841.91
2023-05-04T23:18:36.524Z,99841.06
2023-05-04T23:21:05.449Z,99841.06
2023-05-04T23:23:34.681Z,99840.16
2023-05-04T23:26:03.176Z,99845.41
2023-05-04T23:28:31.526Z,99836.66
2023-05-04T23:31:02.483Z,99840.13
2023-05-04T23:33:30.958Z,99834.88
2023-05-04T23:35:59.462Z,99834.88
2023-05-04T23:38:27.946Z,99834.88
2023-05-04T23:40:56.960Z,99834.00
2023-05-04T23:43:25.747Z,99833.13
2023-05-04T23:46:02.201Z,99826.13
2023-05-04T23:48:31.877Z,99826.09
2023-05-04T23:51:03.838Z,99834.88
2023-05-04T23:53:33.661Z,99839.22
2023-05-04T23:56:04.318Z,99830.50
2023-05-04T23:58:34.078Z,99836.63
